sensor_id;sensor_type;location;lat;lon;timestamp;P1;durP1;ratioP1;P2;durP2;ratioP2
4986;SDS011;12674;51.500;7.552;2023-04-06T00:00:17;13.97;;;9.37;;
4986;SDS011;12674;51.500;7.552;2023-04-06T00:02:20;13.13;;;9.53;;
4986;SDS011;12674;51.500;7.552;2023-04-06T00:04:24;14.70;;;9.27;;
4986;SDS011;12674;51.500;7.552;2023-04-06T00:06:28;12.67;;;8.70;;
4986;SDS011;12674;51.500;7.552;2023-04-06T00:08:31;9.77;;;7.83;;
4986;SDS011;12674;51.500;7.552;2023-04-06T00:10:34;12.73;;;9.27;;
4986;SDS011;12674;51.500;7.552;2023-04-06T00:12:36;13.60;;;9.83;;
4986;SDS011;12674;51.500;7.552;2023-04-06T00:14:39;18.13;;;9.60;;
4986;SDS011;12674;51.500;7.552;2023-04-06T00:16:43;12.00;;;8.20;;
4986;SDS011;12674;51.500;7.552;2023-04-06T00:18:46;15.43;;;9.10;;
4986;SDS011;12674;51.500;7.552;2023-04-06T00:20:51;12.67;;;9.03;;
4986;SDS011;12674;51.500;7.552;2023-04-06T00:22:54;10.10;;;8.03;;
4986;SDS011;12674;51.500;7.552;2023-04-06T00:24:57;12.87;;;8.37;;
4986;SDS011;12674;51.500;7.552;2023-04-06T00:27:00;12.20;;;7.90;;
4986;SDS011;12674;51.500;7.552;2023-04-06T00:29:04;13.90;;;8.27;;
4986;SDS011;12674;51.500;7.552;2023-04-06T00:31:08;10.63;;;8.37;;
4986;SDS011;12674;51.500;7.552;2023-04-06T00:33:11;9.63;;;7.63;;
4986;SDS011;12674;51.500;7.552;2023-04-06T00:35:14;17.30;;;9.00;;
4986;SDS011;12674;51.500;7.552;2023-04-06T00:37:19;22.47;;;9.97;;
4986;SDS011;12674;51.500;7.552;2023-04-06T00:39:23;13.73;;;9.40;;
4986;SDS011;12674;51.500;7.552;2023-04-06T00:41:26;12.40;;;8.97;;
4986;SDS011;12674;51.500;7.552;2023-04-06T00:43:29;13.77;;;9.03;;
4986;SDS011;12674;51.500;7.552;2023-04-06T00:45:32;11.50;;;7.90;;
4986;SDS011;12674;51.500;7.552;2023-04-06T00:47:35;17.20;;;8.93;;
4986;SDS011;12674;51.500;7.552;2023-04-06T00:49:38;17.87;;;8.20;;
4986;SDS011;12674;51.500;7.552;2023-04-06T00:51:41;16.27;;;8.67;;
4986;SDS011;12674;51.500;7.552;2023-04-06T00:53:46;11.23;;;8.30;;
4986;SDS011;12674;51.500;7.552;2023-04-06T00:55:49;12.73;;;8.10;;
4986;SDS011;12674;51.500;7.552;2023-04-06T00:57:52;12.27;;;6.93;;
4986;SDS011;12674;51.500;7.552;2023-04-06T00:59:56;14.73;;;8.60;;
4986;SDS011;12674;51.500;7.552;2023-04-06T01:01:59;9.83;;;7.50;;
4986;SDS011;12674;51.500;7.552;2023-04-06T01:04:10;12.83;;;7.33;;
4986;SDS011;12674;51.500;7.552;2023-04-06T01:06:15;10.30;;;7.10;;
4986;SDS011;12674;51.500;7.552;2023-04-06T01:08:26;12.70;;;7.00;;
4986;SDS011;12674;51.500;7.552;2023-04-06T01:10:45;11.00;;;7.60;;
4986;SDS011;12674;51.500;7.552;2023-04-06T01:13:02;13.30;;;8.10;;
4986;SDS011;12674;51.500;7.552;2023-04-06T01:15:22;13.43;;;7.93;;
4986;SDS011;12674;51.500;7.552;2023-04-06T01:17:26;13.70;;;8.33;;
4986;SDS011;12674;51.500;7.552;2023-04-06T01:19:34;14.97;;;8.30;;
4986;SDS011;12674;51.500;7.552;2023-04-06T01:21:38;12.53;;;7.63;;
4986;SDS011;12674;51.500;7.552;2023-04-06T01:23:49;12.73;;;7.60;;
4986;SDS011;12674;51.500;7.552;2023-04-06T01:25:59;10.20;;;7.30;;
4986;SDS011;12674;51.500;7.552;2023-04-06T01:28:04;20.27;;;7.80;;
4986;SDS011;12674;51.500;7.552;2023-04-06T01:30:26;16.97;;;8.00;;
4986;SDS011;12674;51.500;7.552;2023-04-06T01:32:36;11.83;;;7.20;;
4986;SDS011;12674;51.500;7.552;2023-04-06T01:34:40;17.27;;;8.10;;
4986;SDS011;12674;51.500;7.552;2023-04-06T01:36:43;12.97;;;7.20;;
4986;SDS011;12674;51.500;7.552;2023-04-06T01:39:01;11.10;;;7.70;;
4986;SDS011;12674;51.500;7.552;2023-04-06T01:41:09;12.50;;;7.87;;
4986;SDS011;12674;51.500;7.552;2023-04-06T01:43:21;9.77;;;7.13;;
4986;SDS011;12674;51.500;7.552;2023-04-06T01:45:35;8.10;;;6.70;;
4986;SDS011;12674;51.500;7.552;2023-04-06T01:47:48;11.83;;;7.23;;
4986;SDS011;12674;51.500;7.552;2023-04-06T01:49:52;11.80;;;6.67;;
4986;SDS011;12674;51.500;7.552;2023-04-06T01:51:56;8.50;;;6.00;;
4986;SDS011;12674;51.500;7.552;2023-04-06T01:53:59;16.20;;;6.37;;
4986;SDS011;12674;51.500;7.552;2023-04-06T01:56:13;8.87;;;5.97;;
4986;SDS011;12674;51.500;7.552;2023-04-06T01:58:51;11.07;;;6.93;;
4986;SDS011;12674;51.500;7.552;2023-04-06T02:00:55;10.23;;;5.73;;
4986;SDS011;12674;51.500;7.552;2023-04-06T02:02:59;12.80;;;7.07;;
4986;SDS011;12674;51.500;7.552;2023-04-06T02:05:04;8.53;;;6.33;;
4986;SDS011;12674;51.500;7.552;2023-04-06T02:07:08;10.77;;;5.70;;
4986;SDS011;12674;51.500;7.552;2023-04-06T02:09:11;10.93;;;6.30;;
4986;SDS011;12674;51.500;7.552;2023-04-06T02:11:16;12.37;;;6.17;;
4986;SDS011;12674;51.500;7.552;2023-04-06T02:13:23;15.23;;;6.20;;
4986;SDS011;12674;51.500;7.552;2023-04-06T02:15:27;11.00;;;6.60;;
4986;SDS011;12674;51.500;7.552;2023-04-06T02:17:30;10.90;;;6.70;;
4986;SDS011;12674;51.500;7.552;2023-04-06T02:19:33;9.67;;;6.20;;
4986;SDS011;12674;51.500;7.552;2023-04-06T02:21:36;10.63;;;6.07;;
4986;SDS011;12674;51.500;7.552;2023-04-06T02:23:39;7.87;;;5.30;;
4986;SDS011;12674;51.500;7.552;2023-04-06T02:25:42;9.50;;;5.70;;
4986;SDS011;12674;51.500;7.552;2023-04-06T02:27:47;6.20;;;5.30;;
4986;SDS011;12674;51.500;7.552;2023-04-06T02:29:50;9.50;;;4.87;;
4986;SDS011;12674;51.500;7.552;2023-04-06T02:31:54;5.83;;;5.10;;
4986;SDS011;12674;51.500;7.552;2023-04-06T02:33:57;8.90;;;4.67;;
4986;SDS011;12674;51.500;7.552;2023-04-06T02:36:03;9.40;;;5.97;;
4986;SDS011;12674;51.500;7.552;2023-04-06T02:38:07;8.57;;;5.07;;
4986;SDS011;12674;51.500;7.552;2023-04-06T02:40:10;8.03;;;5.80;;
4986;SDS011;12674;51.500;7.552;2023-04-06T02:42:13;8.87;;;5.00;;
4986;SDS011;12674;51.500;7.552;2023-04-06T02:44:19;7.93;;;5.17;;
4986;SDS011;12674;51.500;7.552;2023-04-06T02:46:22;8.03;;;4.70;;
4986;SDS011;12674;51.500;7.552;2023-04-06T02:48:25;12.80;;;5.00;;
4986;SDS011;12674;51.500;7.552;2023-04-06T02:50:29;6.23;;;5.20;;
4986;SDS011;12674;51.500;7.552;2023-04-06T02:52:36;9.20;;;5.07;;
4986;SDS011;12674;51.500;7.552;2023-04-06T02:54:39;11.73;;;5.00;;
4986;SDS011;12674;51.500;7.552;2023-04-06T02:56:43;7.63;;;4.80;;
4986;SDS011;12674;51.500;7.552;2023-04-06T02:58:46;8.13;;;4.90;;
4986;SDS011;12674;51.500;7.552;2023-04-06T03:00:52;6.37;;;5.27;;
4986;SDS011;12674;51.500;7.552;2023-04-06T03:02:55;8.87;;;4.80;;
4986;SDS011;12674;51.500;7.552;2023-04-06T03:05:00;6.90;;;4.93;;
4986;SDS011;12674;51.500;7.552;2023-04-06T03:07:09;7.93;;;4.93;;
4986;SDS011;12674;51.500;7.552;2023-04-06T03:09:13;10.57;;;4.97;;
4986;SDS011;12674;51.500;7.552;2023-04-06T03:11:18;7.10;;;4.80;;
4986;SDS011;12674;51.500;7.552;2023-04-06T03:13:22;5.83;;;5.00;;
4986;SDS011;12674;51.500;7.552;2023-04-06T03:15:28;6.40;;;5.27;;
4986;SDS011;12674;51.500;7.552;2023-04-06T03:17:45;11.27;;;5.10;;
4986;SDS011;12674;51.500;7.552;2023-04-06T03:20:04;7.53;;;5.40;;
4986;SDS011;12674;51.500;7.552;2023-04-06T03:22:08;8.10;;;5.50;;
4986;SDS011;12674;51.500;7.552;2023-04-06T03:24:12;9.33;;;4.90;;
4986;SDS011;12674;51.500;7.552;2023-04-06T03:26:16;7.10;;;4.63;;
4986;SDS011;12674;51.500;7.552;2023-04-06T03:28:19;8.23;;;4.83;;
4986;SDS011;12674;51.500;7.552;2023-04-06T03:30:36;9.13;;;5.90;;
4986;SDS011;12674;51.500;7.552;2023-04-06T03:32:40;9.20;;;5.00;;
4986;SDS011;12674;51.500;7.552;2023-04-06T03:34:44;8.83;;;5.77;;
4986;SDS011;12674;51.500;7.552;2023-04-06T03:36:47;7.70;;;4.73;;
4986;SDS011;12674;51.500;7.552;2023-04-06T03:39:11;17.30;;;5.47;;
4986;SDS011;12674;51.500;7.552;2023-04-06T03:41:16;8.47;;;5.37;;
4986;SDS011;12674;51.500;7.552;2023-04-06T03:43:27;7.67;;;4.77;;
4986;SDS011;12674;51.500;7.552;2023-04-06T03:45:31;9.10;;;5.47;;
4986;SDS011;12674;51.500;7.552;2023-04-06T03:47:34;5.90;;;4.90;;
4986;SDS011;12674;51.500;7.552;2023-04-06T03:49:40;13.53;;;5.30;;
4986;SDS011;12674;51.500;7.552;2023-04-06T03:51:46;7.97;;;5.07;;
4986;SDS011;12674;51.500;7.552;2023-04-06T03:53:50;9.33;;;5.50;;
4986;SDS011;12674;51.500;7.552;2023-04-06T03:55:53;9.60;;;5.03;;
4986;SDS011;12674;51.500;7.552;2023-04-06T03:57:56;7.70;;;5.33;;
4986;SDS011;12674;51.500;7.552;2023-04-06T03:59:59;7.00;;;5.13;;
4986;SDS011;12674;51.500;7.552;2023-04-06T04:02:02;9.90;;;4.90;;
4986;SDS011;12674;51.500;7.552;2023-04-06T04:04:05;8.87;;;5.50;;
4986;SDS011;12674;51.500;7.552;2023-04-06T04:06:08;7.53;;;4.97;;
4986;SDS011;12674;51.500;7.552;2023-04-06T04:08:15;12.80;;;6.13;;
4986;SDS011;12674;51.500;7.552;2023-04-06T04:10:18;10.50;;;5.93;;
4986;SDS011;12674;51.500;7.552;2023-04-06T04:12:21;7.77;;;5.40;;
4986;SDS011;12674;51.500;7.552;2023-04-06T04:14:24;13.83;;;4.70;;
4986;SDS011;12674;51.500;7.552;2023-04-06T04:16:27;7.90;;;5.40;;
4986;SDS011;12674;51.500;7.552;2023-04-06T04:18:31;10.10;;;5.50;;
4986;SDS011;12674;51.500;7.552;2023-04-06T04:20:34;8.60;;;4.37;;
4986;SDS011;12674;51.500;7.552;2023-04-06T04:22:37;7.30;;;5.67;;
4986;SDS011;12674;51.500;7.552;2023-04-06T04:24:42;6.73;;;4.20;;
4986;SDS011;12674;51.500;7.552;2023-04-06T04:26:45;6.50;;;4.73;;
4986;SDS011;12674;51.500;7.552;2023-04-06T04:28:49;11.40;;;5.77;;
4986;SDS011;12674;51.500;7.552;2023-04-06T04:30:52;11.73;;;4.63;;
4986;SDS011;12674;51.500;7.552;2023-04-06T04:32:55;7.30;;;4.97;;
4986;SDS011;12674;51.500;7.552;2023-04-06T04:34:59;8.20;;;5.10;;
4986;SDS011;12674;51.500;7.552;2023-04-06T04:37:10;7.13;;;4.47;;
4986;SDS011;12674;51.500;7.552;2023-04-06T04:39:22;7.07;;;4.40;;
4986;SDS011;12674;51.500;7.552;2023-04-06T04:41:33;6.30;;;4.30;;
4986;SDS011;12674;51.500;7.552;2023-04-06T04:43:39;6.50;;;4.80;;
4986;SDS011;12674;51.500;7.552;2023-04-06T04:45:42;7.87;;;4.97;;
4986;SDS011;12674;51.500;7.552;2023-04-06T04:47:57;4.70;;;4.10;;
4986;SDS011;12674;51.500;7.552;2023-04-06T04:50:07;9.10;;;4.77;;
4986;SDS011;12674;51.500;7.552;2023-04-06T04:52:13;9.00;;;4.13;;
4986;SDS011;12674;51.500;7.552;2023-04-06T04:54:43;9.40;;;5.60;;
4986;SDS011;12674;51.500;7.552;2023-04-06T04:56:57;11.00;;;4.10;;
4986;SDS011;12674;51.500;7.552;2023-04-06T04:59:13;8.20;;;4.33;;
4986;SDS011;12674;51.500;7.552;2023-04-06T05:01:24;8.23;;;4.80;;
4986;SDS011;12674;51.500;7.552;2023-04-06T05:03:27;6.33;;;4.37;;
4986;SDS011;12674;51.500;7.552;2023-04-06T05:05:40;4.47;;;4.03;;
4986;SDS011;12674;51.500;7.552;2023-04-06T05:07:43;10.73;;;4.57;;
4986;SDS011;12674;51.500;7.552;2023-04-06T05:09:57;7.30;;;4.33;;
4986;SDS011;12674;51.500;7.552;2023-04-06T05:12:05;21.27;;;4.13;;
4986;SDS011;12674;51.500;7.552;2023-04-06T05:14:15;6.07;;;4.43;;
4986;SDS011;12674;51.500;7.552;2023-04-06T05:16:18;10.50;;;4.73;;
4986;SDS011;12674;51.500;7.552;2023-04-06T05:18:22;7.00;;;5.10;;
4986;SDS011;12674;51.500;7.552;2023-04-06T05:20:25;6.40;;;4.03;;
4986;SDS011;12674;51.500;7.552;2023-04-06T05:22:30;7.90;;;4.93;;
4986;SDS011;12674;51.500;7.552;2023-04-06T05:24:42;6.33;;;4.60;;
4986;SDS011;12674;51.500;7.552;2023-04-06T05:26:45;10.90;;;4.83;;
4986;SDS011;12674;51.500;7.552;2023-04-06T05:28:56;7.93;;;5.63;;
4986;SDS011;12674;51.500;7.552;2023-04-06T05:31:03;8.83;;;5.60;;
4986;SDS011;12674;51.500;7.552;2023-04-06T05:33:16;7.10;;;5.00;;
4986;SDS011;12674;51.500;7.552;2023-04-06T05:35:51;6.80;;;5.60;;
4986;SDS011;12674;51.500;7.552;2023-04-06T05:37:54;10.70;;;6.17;;
4986;SDS011;12674;51.500;7.552;2023-04-06T05:39:59;9.17;;;5.70;;
4986;SDS011;12674;51.500;7.552;2023-04-06T05:42:07;13.10;;;6.63;;
4986;SDS011;12674;51.500;7.552;2023-04-06T05:44:27;15.97;;;6.10;;
4986;SDS011;12674;51.500;7.552;2023-04-06T05:46:39;13.60;;;5.63;;
4986;SDS011;12674;51.500;7.552;2023-04-06T05:48:47;10.93;;;5.97;;
4986;SDS011;12674;51.500;7.552;2023-04-06T05:50:50;10.93;;;6.83;;
4986;SDS011;12674;51.500;7.552;2023-04-06T05:53:00;11.47;;;6.60;;
4986;SDS011;12674;51.500;7.552;2023-04-06T05:55:10;10.90;;;7.13;;
4986;SDS011;12674;51.500;7.552;2023-04-06T05:57:16;12.20;;;6.90;;
4986;SDS011;12674;51.500;7.552;2023-04-06T05:59:20;12.80;;;6.77;;
4986;SDS011;12674;51.500;7.552;2023-04-06T06:01:24;11.57;;;7.27;;
4986;SDS011;12674;51.500;7.552;2023-04-06T06:03:29;10.87;;;6.20;;
4986;SDS011;12674;51.500;7.552;2023-04-06T06:05:32;14.70;;;7.30;;
4986;SDS011;12674;51.500;7.552;2023-04-06T06:07:51;11.63;;;7.17;;
4986;SDS011;12674;51.500;7.552;2023-04-06T06:09:56;10.20;;;7.00;;
4986;SDS011;12674;51.500;7.552;2023-04-06T06:12:04;14.50;;;7.40;;
4986;SDS011;12674;51.500;7.552;2023-04-06T06:14:08;12.87;;;7.70;;
4986;SDS011;12674;51.500;7.552;2023-04-06T06:16:14;13.27;;;7.60;;
4986;SDS011;12674;51.500;7.552;2023-04-06T06:18:22;16.33;;;6.53;;
4986;SDS011;12674;51.500;7.552;2023-04-06T06:20:28;15.30;;;7.37;;
4986;SDS011;12674;51.500;7.552;2023-04-06T06:22:35;9.83;;;5.87;;
4986;SDS011;12674;51.500;7.552;2023-04-06T06:24:41;17.90;;;7.10;;
4986;SDS011;12674;51.500;7.552;2023-04-06T06:26:46;12.93;;;7.50;;
4986;SDS011;12674;51.500;7.552;2023-04-06T06:28:52;11.53;;;6.57;;
4986;SDS011;12674;51.500;7.552;2023-04-06T06:30:55;9.07;;;5.97;;
4986;SDS011;12674;51.500;7.552;2023-04-06T06:33:00;9.70;;;6.03;;
4986;SDS011;12674;51.500;7.552;2023-04-06T06:35:06;9.10;;;5.90;;
4986;SDS011;12674;51.500;7.552;2023-04-06T06:37:10;8.73;;;5.53;;
4986;SDS011;12674;51.500;7.552;2023-04-06T06:39:13;10.93;;;6.50;;
4986;SDS011;12674;51.500;7.552;2023-04-06T06:41:16;13.13;;;6.20;;
4986;SDS011;12674;51.500;7.552;2023-04-06T06:43:20;9.83;;;5.70;;
4986;SDS011;12674;51.500;7.552;2023-04-06T06:45:32;12.23;;;5.73;;
4986;SDS011;12674;51.500;7.552;2023-04-06T06:47:35;16.63;;;5.90;;
4986;SDS011;12674;51.500;7.552;2023-04-06T06:49:38;12.23;;;6.00;;
4986;SDS011;12674;51.500;7.552;2023-04-06T06:51:44;11.60;;;6.77;;
4986;SDS011;12674;51.500;7.552;2023-04-06T06:53:48;11.60;;;5.80;;
4986;SDS011;12674;51.500;7.552;2023-04-06T06:55:51;7.40;;;5.57;;
4986;SDS011;12674;51.500;7.552;2023-04-06T06:57:54;12.23;;;5.87;;
4986;SDS011;12674;51.500;7.552;2023-04-06T06:59:58;12.10;;;6.15;;
4986;SDS011;12674;51.500;7.552;2023-04-06T07:02:03;8.60;;;5.55;;
4986;SDS011;12674;51.500;7.552;2023-04-06T07:04:06;8.68;;;4.82;;
4986;SDS011;12674;51.500;7.552;2023-04-06T07:06:10;8.90;;;5.95;;
4986;SDS011;12674;51.500;7.552;2023-04-06T07:08:16;11.18;;;5.82;;
4986;SDS011;12674;51.500;7.552;2023-04-06T07:10:19;9.32;;;6.03;;
4986;SDS011;12674;51.500;7.552;2023-04-06T07:12:22;10.55;;;5.50;;
4986;SDS011;12674;51.500;7.552;2023-04-06T07:14:26;12.85;;;6.25;;
4986;SDS011;12674;51.500;7.552;2023-04-06T07:16:29;9.02;;;6.13;;
4986;SDS011;12674;51.500;7.552;2023-04-06T07:18:32;10.63;;;5.72;;
4986;SDS011;12674;51.500;7.552;2023-04-06T07:20:37;11.77;;;5.82;;
4986;SDS011;12674;51.500;7.552;2023-04-06T07:22:41;7.70;;;5.22;;
4986;SDS011;12674;51.500;7.552;2023-04-06T07:24:46;7.28;;;5.20;;
4986;SDS011;12674;51.500;7.552;2023-04-06T07:26:49;11.52;;;5.40;;
4986;SDS011;12674;51.500;7.552;2023-04-06T07:28:53;11.23;;;6.05;;
4986;SDS011;12674;51.500;7.552;2023-04-06T07:30:58;8.38;;;5.60;;
4986;SDS011;12674;51.500;7.552;2023-04-06T07:33:02;11.32;;;6.18;;
4986;SDS011;12674;51.500;7.552;2023-04-06T07:35:09;11.02;;;5.60;;
4986;SDS011;12674;51.500;7.552;2023-04-06T07:37:12;8.82;;;5.60;;
4986;SDS011;12674;51.500;7.552;2023-04-06T07:39:16;11.48;;;5.70;;
4986;SDS011;12674;51.500;7.552;2023-04-06T07:41:21;10.40;;;6.72;;
4986;SDS011;12674;51.500;7.552;2023-04-06T07:43:25;11.60;;;7.07;;
4986;SDS011;12674;51.500;7.552;2023-04-06T07:45:29;14.32;;;7.15;;
4986;SDS011;12674;51.500;7.552;2023-04-06T07:47:34;8.75;;;5.82;;
4986;SDS011;12674;51.500;7.552;2023-04-06T07:49:37;9.70;;;5.10;;
4986;SDS011;12674;51.500;7.552;2023-04-06T07:51:41;10.02;;;5.50;;
4986;SDS011;12674;51.500;7.552;2023-04-06T07:53:45;16.45;;;6.60;;
4986;SDS011;12674;51.500;7.552;2023-04-06T07:55:48;9.00;;;5.90;;
4986;SDS011;12674;51.500;7.552;2023-04-06T07:57:53;8.18;;;6.13;;
4986;SDS011;12674;51.500;7.552;2023-04-06T07:59:56;9.27;;;6.75;;
4986;SDS011;12674;51.500;7.552;2023-04-06T08:01:59;11.02;;;6.03;;
4986;SDS011;12674;51.500;7.552;2023-04-06T08:04:03;11.52;;;6.32;;
4986;SDS011;12674;51.500;7.552;2023-04-06T08:06:06;10.35;;;6.18;;
4986;SDS011;12674;51.500;7.552;2023-04-06T08:08:09;17.17;;;6.00;;
4986;SDS011;12674;51.500;7.552;2023-04-06T08:10:12;9.10;;;5.53;;
4986;SDS011;12674;51.500;7.552;2023-04-06T08:12:16;13.98;;;6.38;;
4986;SDS011;12674;51.500;7.552;2023-04-06T08:14:20;11.85;;;6.43;;
4986;SDS011;12674;51.500;7.552;2023-04-06T08:16:24;7.90;;;5.57;;
4986;SDS011;12674;51.500;7.552;2023-04-06T08:18:27;12.15;;;6.38;;
4986;SDS011;12674;51.500;7.552;2023-04-06T08:20:31;8.02;;;5.63;;
4986;SDS011;12674;51.500;7.552;2023-04-06T08:22:34;7.43;;;5.93;;
4986;SDS011;12674;51.500;7.552;2023-04-06T08:24:37;13.20;;;5.85;;
4986;SDS011;12674;51.500;7.552;2023-04-06T08:26:40;16.27;;;6.32;;
4986;SDS011;12674;51.500;7.552;2023-04-06T08:28:44;10.35;;;6.00;;
4986;SDS011;12674;51.500;7.552;2023-04-06T08:30:48;16.83;;;6.72;;
4986;SDS011;12674;51.500;7.552;2023-04-06T08:32:52;9.70;;;6.45;;
4986;SDS011;12674;51.500;7.552;2023-04-06T08:34:55;9.25;;;6.28;;
4986;SDS011;12674;51.500;7.552;2023-04-06T08:36:58;10.27;;;6.18;;
4986;SDS011;12674;51.500;7.552;2023-04-06T08:39:01;8.68;;;6.65;;
4986;SDS011;12674;51.500;7.552;2023-04-06T08:41:08;10.10;;;6.30;;
4986;SDS011;12674;51.500;7.552;2023-04-06T08:43:13;10.68;;;5.90;;
4986;SDS011;12674;51.500;7.552;2023-04-06T08:45:17;13.38;;;6.25;;
4986;SDS011;12674;51.500;7.552;2023-04-06T08:47:24;13.95;;;7.82;;
4986;SDS011;12674;51.500;7.552;2023-04-06T08:49:27;11.20;;;6.90;;
4986;SDS011;12674;51.500;7.552;2023-04-06T08:51:30;9.48;;;6.95;;
4986;SDS011;12674;51.500;7.552;2023-04-06T08:53:34;11.20;;;7.65;;
4986;SDS011;12674;51.500;7.552;2023-04-06T08:55:37;17.20;;;7.28;;
4986;SDS011;12674;51.500;7.552;2023-04-06T08:57:40;11.48;;;6.97;;
4986;SDS011;12674;51.500;7.552;2023-04-06T08:59:44;14.18;;;7.90;;
4986;SDS011;12674;51.500;7.552;2023-04-06T09:01:47;10.60;;;7.30;;
4986;SDS011;12674;51.500;7.552;2023-04-06T09:03:54;9.57;;;7.00;;
4986;SDS011;12674;51.500;7.552;2023-04-06T09:05:59;9.07;;;7.70;;
4986;SDS011;12674;51.500;7.552;2023-04-06T09:08:02;10.25;;;7.43;;
4986;SDS011;12674;51.500;7.552;2023-04-06T09:10:06;12.90;;;8.02;;
4986;SDS011;12674;51.500;7.552;2023-04-06T09:12:10;10.25;;;6.90;;
4986;SDS011;12674;51.500;7.552;2023-04-06T09:14:14;11.73;;;7.22;;
4986;SDS011;12674;51.500;7.552;2023-04-06T09:16:18;13.10;;;7.82;;
4986;SDS011;12674;51.500;7.552;2023-04-06T09:18:27;21.45;;;8.50;;
4986;SDS011;12674;51.500;7.552;2023-04-06T09:20:32;11.32;;;8.75;;
4986;SDS011;12674;51.500;7.552;2023-04-06T09:22:36;10.35;;;7.60;;
4986;SDS011;12674;51.500;7.552;2023-04-06T09:24:40;16.30;;;8.57;;
4986;SDS011;12674;51.500;7.552;2023-04-06T09:26:44;13.18;;;8.35;;
4986;SDS011;12674;51.500;7.552;2023-04-06T09:28:50;10.50;;;8.00;;
4986;SDS011;12674;51.500;7.552;2023-04-06T09:30:53;11.73;;;8.25;;
4986;SDS011;12674;51.500;7.552;2023-04-06T09:32:57;14.05;;;9.02;;
4986;SDS011;12674;51.500;7.552;2023-04-06T09:35:07;13.60;;;8.20;;
4986;SDS011;12674;51.500;7.552;2023-04-06T09:37:15;16.95;;;9.55;;
4986;SDS011;12674;51.500;7.552;2023-04-06T09:39:20;8.23;;;6.82;;
4986;SDS011;12674;51.500;7.552;2023-04-06T09:41:25;19.55;;;8.50;;
4986;SDS011;12674;51.500;7.552;2023-04-06T09:43:29;16.42;;;7.80;;
4986;SDS011;12674;51.500;7.552;2023-04-06T09:45:32;13.07;;;7.63;;
4986;SDS011;12674;51.500;7.552;2023-04-06T09:47:36;8.48;;;7.40;;
4986;SDS011;12674;51.500;7.552;2023-04-06T09:49:41;13.35;;;8.98;;
4986;SDS011;12674;51.500;7.552;2023-04-06T09:51:46;15.50;;;7.95;;
4986;SDS011;12674;51.500;7.552;2023-04-06T09:53:52;10.52;;;7.45;;
4986;SDS011;12674;51.500;7.552;2023-04-06T09:55:57;15.73;;;8.48;;
4986;SDS011;12674;51.500;7.552;2023-04-06T09:58:02;9.40;;;7.65;;
4986;SDS011;12674;51.500;7.552;2023-04-06T10:00:08;18.92;;;7.55;;
4986;SDS011;12674;51.500;7.552;2023-04-06T10:02:15;12.20;;;8.25;;
4986;SDS011;12674;51.500;7.552;2023-04-06T10:04:25;11.23;;;7.22;;
4986;SDS011;12674;51.500;7.552;2023-04-06T10:06:34;17.88;;;7.82;;
4986;SDS011;12674;51.500;7.552;2023-04-06T10:08:38;14.80;;;7.88;;
4986;SDS011;12674;51.500;7.552;2023-04-06T10:10:44;16.45;;;8.05;;
4986;SDS011;12674;51.500;7.552;2023-04-06T10:12:48;16.83;;;9.63;;
4986;SDS011;12674;51.500;7.552;2023-04-06T10:14:51;9.60;;;7.75;;
4986;SDS011;12674;51.500;7.552;2023-04-06T10:16:55;9.18;;;7.00;;
4986;SDS011;12674;51.500;7.552;2023-04-06T10:19:08;13.15;;;8.65;;
4986;SDS011;12674;51.500;7.552;2023-04-06T10:21:15;14.73;;;8.88;;
4986;SDS011;12674;51.500;7.552;2023-04-06T10:23:23;11.27;;;9.07;;
4986;SDS011;12674;51.500;7.552;2023-04-06T10:25:32;16.10;;;10.63;;
4986;SDS011;12674;51.500;7.552;2023-04-06T10:27:37;15.90;;;11.52;;
4986;SDS011;12674;51.500;7.552;2023-04-06T10:29:41;16.77;;;9.77;;
4986;SDS011;12674;51.500;7.552;2023-04-06T10:31:46;16.63;;;10.07;;
4986;SDS011;12674;51.500;7.552;2023-04-06T10:33:54;19.23;;;11.35;;
4986;SDS011;12674;51.500;7.552;2023-04-06T10:36:09;19.40;;;13.20;;
4986;SDS011;12674;51.500;7.552;2023-04-06T10:38:13;21.42;;;13.52;;
4986;SDS011;12674;51.500;7.552;2023-04-06T10:40:19;19.67;;;12.80;;
4986;SDS011;12674;51.500;7.552;2023-04-06T10:42:24;19.33;;;13.20;;
4986;SDS011;12674;51.500;7.552;2023-04-06T10:44:29;17.20;;;12.77;;
4986;SDS011;12674;51.500;7.552;2023-04-06T10:46:33;19.02;;;13.13;;
4986;SDS011;12674;51.500;7.552;2023-04-06T10:48:37;15.90;;;12.68;;
4986;SDS011;12674;51.500;7.552;2023-04-06T10:50:42;17.52;;;13.10;;
4986;SDS011;12674;51.500;7.552;2023-04-06T10:52:47;22.35;;;13.07;;
4986;SDS011;12674;51.500;7.552;2023-04-06T10:55:02;23.27;;;13.60;;
4986;SDS011;12674;51.500;7.552;2023-04-06T10:57:05;22.38;;;13.55;;
4986;SDS011;12674;51.500;7.552;2023-04-06T10:59:09;18.50;;;13.65;;
4986;SDS011;12674;51.500;7.552;2023-04-06T11:01:14;18.75;;;12.98;;
4986;SDS011;12674;51.500;7.552;2023-04-06T11:03:18;19.67;;;13.13;;
4986;SDS011;12674;51.500;7.552;2023-04-06T11:05:21;18.88;;;13.43;;
4986;SDS011;12674;51.500;7.552;2023-04-06T11:07:24;19.45;;;14.02;;
4986;SDS011;12674;51.500;7.552;2023-04-06T11:09:28;24.63;;;13.65;;
4986;SDS011;12674;51.500;7.552;2023-04-06T11:11:38;19.70;;;12.88;;
4986;SDS011;12674;51.500;7.552;2023-04-06T11:13:42;20.38;;;13.68;;
4986;SDS011;12674;51.500;7.552;2023-04-06T11:15:47;22.88;;;14.93;;
4986;SDS011;12674;51.500;7.552;2023-04-06T11:17:51;19.95;;;13.23;;
4986;SDS011;12674;51.500;7.552;2023-04-06T11:19:55;20.85;;;14.75;;
4986;SDS011;12674;51.500;7.552;2023-04-06T11:22:05;22.85;;;12.68;;
4986;SDS011;12674;51.500;7.552;2023-04-06T11:24:10;21.33;;;13.38;;
4986;SDS011;12674;51.500;7.552;2023-04-06T11:26:14;18.95;;;13.73;;
4986;SDS011;12674;51.500;7.552;2023-04-06T11:28:17;20.30;;;13.18;;
4986;SDS011;12674;51.500;7.552;2023-04-06T11:30:20;20.60;;;13.40;;
4986;SDS011;12674;51.500;7.552;2023-04-06T11:32:24;20.00;;;13.50;;
4986;SDS011;12674;51.500;7.552;2023-04-06T11:34:32;18.10;;;12.73;;
4986;SDS011;12674;51.500;7.552;2023-04-06T11:36:42;15.73;;;11.57;;
4986;SDS011;12674;51.500;7.552;2023-04-06T11:38:46;21.02;;;11.48;;
4986;SDS011;12674;51.500;7.552;2023-04-06T11:40:52;21.27;;;11.98;;
4986;SDS011;12674;51.500;7.552;2023-04-06T11:42:55;21.58;;;12.98;;
4986;SDS011;12674;51.500;7.552;2023-04-06T11:44:59;22.02;;;13.77;;
4986;SDS011;12674;51.500;7.552;2023-04-06T11:47:05;20.55;;;12.90;;
4986;SDS011;12674;51.500;7.552;2023-04-06T11:49:09;15.98;;;12.30;;
4986;SDS011;12674;51.500;7.552;2023-04-06T11:51:23;19.10;;;12.35;;
4986;SDS011;12674;51.500;7.552;2023-04-06T11:53:27;19.98;;;10.98;;
4986;SDS011;12674;51.500;7.552;2023-04-06T11:55:36;21.90;;;12.30;;
4986;SDS011;12674;51.500;7.552;2023-04-06T11:57:41;15.02;;;10.98;;
4986;SDS011;12674;51.500;7.552;2023-04-06T11:59:44;16.83;;;11.73;;
4986;SDS011;12674;51.500;7.552;2023-04-06T12:01:48;18.05;;;11.82;;
4986;SDS011;12674;51.500;7.552;2023-04-06T12:03:51;16.38;;;12.00;;
4986;SDS011;12674;51.500;7.552;2023-04-06T12:05:55;18.23;;;13.25;;
4986;SDS011;12674;51.500;7.552;2023-04-06T12:08:01;25.05;;;14.05;;
4986;SDS011;12674;51.500;7.552;2023-04-06T12:10:05;16.83;;;12.95;;
4986;SDS011;12674;51.500;7.552;2023-04-06T12:12:09;17.42;;;12.93;;
4986;SDS011;12674;51.500;7.552;2023-04-06T12:14:12;20.30;;;14.80;;
4986;SDS011;12674;51.500;7.552;2023-04-06T12:16:15;21.10;;;13.85;;
4986;SDS011;12674;51.500;7.552;2023-04-06T12:18:20;25.00;;;14.18;;
4986;SDS011;12674;51.500;7.552;2023-04-06T12:20:24;27.92;;;14.68;;
4986;SDS011;12674;51.500;7.552;2023-04-06T12:22:28;17.17;;;14.05;;
4986;SDS011;12674;51.500;7.552;2023-04-06T12:24:33;21.40;;;14.73;;
4986;SDS011;12674;51.500;7.552;2023-04-06T12:26:37;23.08;;;14.38;;
4986;SDS011;12674;51.500;7.552;2023-04-06T12:28:42;20.67;;;14.57;;
4986;SDS011;12674;51.500;7.552;2023-04-06T12:30:46;23.25;;;14.98;;
4986;SDS011;12674;51.500;7.552;2023-04-06T12:32:50;23.73;;;15.73;;
4986;SDS011;12674;51.500;7.552;2023-04-06T12:34:53;21.67;;;14.10;;
4986;SDS011;12674;51.500;7.552;2023-04-06T12:36:56;25.58;;;15.05;;
4986;SDS011;12674;51.500;7.552;2023-04-06T12:38:59;22.60;;;14.82;;